createdAt,value
2018-03-30T08:30:19.417Z,9.39
2018-03-30T08:30:48.834Z,9.30
2018-03-30T08:31:48.845Z,8.88
2018-03-30T08:32:48.837Z,8.66
2018-03-30T08:33:48.860Z,9.06
2018-03-30T08:34:48.858Z,9.05
2018-03-30T08:36:14.931Z,9.15
2018-03-30T08:36:49.518Z,9.09
2018-03-30T08:37:48.863Z,9.63
2018-03-30T08:38:48.891Z,9.50
2018-03-30T08:39:48.872Z,9.38
2018-03-30T08:40:48.874Z,9.64
2018-03-30T08:41:48.961Z,9.40
2018-03-30T08:42:49.268Z,9.12
2018-03-30T08:43:48.868Z,8.96
2018-03-30T08:44:48.875Z,8.99
2018-03-30T08:45:48.900Z,9.43
2018-03-30T08:46:48.894Z,9.25
2018-03-30T08:49:37.692Z,9.71
2018-03-30T08:50:24.396Z,10.30
2018-03-30T08:51:23.536Z,10.19
2018-03-30T08:52:32.073Z,10.04
2018-03-30T08:53:23.548Z,10.32
2018-03-30T08:54:23.542Z,10.32
2018-03-30T08:55:23.582Z,10.42
2018-03-30T08:56:23.554Z,11.02
2018-03-30T08:57:23.558Z,11.25
2018-03-30T08:58:25.209Z,10.66
2018-03-30T08:59:23.599Z,9.97
2018-03-30T09:00:23.563Z,10.28
2018-03-30T09:01:23.795Z,10.76
2018-03-30T09:02:23.585Z,11.01
2018-03-30T09:03:46.192Z,11.14
2018-03-30T09:04:23.591Z,11.17
2018-03-30T09:05:23.595Z,10.92
2018-03-30T09:06:23.624Z,10.47
2018-03-30T09:07:23.599Z,10.04
2018-03-30T09:08:37.667Z,9.86
2018-03-30T09:09:23.926Z,10.24
2018-03-30T09:10:23.626Z,10.84
2018-03-30T09:11:23.630Z,10.94
2018-03-30T09:12:23.622Z,10.95
2018-03-30T09:13:23.710Z,10.73
2018-03-30T09:15:03.180Z,10.99
2018-03-30T09:15:24.058Z,10.76
2018-03-30T09:16:23.643Z,11.25
2018-03-30T09:17:23.676Z,11.35
2018-03-30T09:18:23.684Z,11.99
2018-03-30T09:22:29.690Z,11.75
2018-03-30T09:26:31.633Z,12.44
2018-03-30T09:27:31.130Z,12.87
2018-03-30T09:28:42.122Z,12.04
2018-03-30T09:29:31.137Z,12.02
2018-03-30T09:30:31.134Z,12.12
2018-03-30T09:31:31.151Z,12.41
2018-03-30T09:32:31.181Z,11.96
2018-03-30T09:33:32.051Z,11.72
2018-03-30T09:34:31.201Z,11.49
2018-03-30T09:35:31.204Z,11.57
2018-03-30T09:36:31.210Z,12.01
2018-03-30T09:37:31.256Z,11.74
2018-03-30T09:40:08.536Z,11.68
2018-03-30T09:41:02.945Z,12.02
2018-03-30T09:42:02.969Z,12.16
2018-03-30T09:43:02.946Z,12.75
2018-03-30T09:46:13.237Z,11.64
2018-03-30T09:46:35.107Z,11.24
2018-03-30T09:47:35.117Z,12.06
2018-03-30T09:51:40.154Z,12.92
2018-03-30T09:52:38.422Z,13.09
2018-03-30T09:54:02.570Z,13.43
2018-03-30T09:54:38.465Z,13.41
2018-03-30T09:55:38.494Z,12.54
2018-03-30T09:56:38.468Z,12.44
2018-03-30T09:57:39.105Z,12.46
2018-03-30T09:58:38.547Z,12.08
2018-03-30T09:59:38.523Z,12.15
2018-03-30T10:00:38.537Z,11.94
2018-03-30T10:01:38.532Z,12.04
2018-03-30T10:02:38.537Z,11.80
2018-03-30T10:05:10.698Z,12.49
2018-03-30T10:06:10.681Z,13.20
2018-03-30T10:07:10.670Z,13.77
2018-03-30T10:08:10.670Z,13.98
2018-03-30T10:09:10.739Z,13.11
2018-03-30T10:10:10.722Z,12.95
2018-03-30T10:11:10.700Z,13.06
2018-03-30T10:12:10.698Z,13.21
2018-03-30T10:13:10.728Z,13.51
2018-03-30T10:16:05.541Z,13.98
2018-03-30T10:17:05.487Z,13.09
2018-03-30T10:18:05.551Z,13.06
2018-03-30T10:19:20.893Z,12.48
2018-03-30T10:20:05.542Z,12.34
2018-03-30T10:21:05.543Z,12.46
2018-03-30T10:22:05.550Z,12.82
2018-03-30T10:23:05.555Z,13.59
2018-03-30T10:24:09.016Z,13.51
2018-03-30T10:25:05.583Z,13.25
2018-03-30T10:26:05.632Z,13.87
2018-03-30T10:27:05.610Z,14.60
2018-03-30T10:28:05.618Z,15.05
2018-03-30T10:29:05.618Z,14.93
2018-03-30T10:31:46.896Z,14.52
2018-03-30T10:32:38.475Z,15.01
2018-03-30T10:33:38.492Z,15.31
2018-03-30T10:36:15.265Z,12.95
2018-03-30T10:37:15.306Z,13.32
2018-03-30T10:38:15.274Z,13.52
2018-03-30T10:39:26.407Z,13.17
2018-03-30T10:40:15.298Z,13.46
2018-03-30T10:41:15.303Z,13.02
2018-03-30T10:42:15.318Z,12.63
2018-03-30T10:43:16.235Z,12.74
2018-03-30T10:44:23.293Z,12.84
2018-03-30T10:45:15.349Z,13.25
2018-03-30T10:46:15.376Z,13.47
2018-03-30T10:47:15.369Z,12.49
2018-03-30T10:48:15.398Z,12.11
2018-03-30T10:49:17.311Z,12.05
2018-03-30T10:50:15.407Z,12.23
2018-03-30T10:51:15.414Z,12.78
2018-03-30T10:52:27.769Z,12.49
2018-03-30T10:53:15.437Z,12.79
2018-03-30T10:57:51.802Z,12.41
2018-03-30T10:58:46.243Z,12.01
2018-03-30T10:59:46.331Z,11.53
2018-03-30T11:00:46.249Z,11.56
2018-03-30T11:01:46.274Z,11.68
2018-03-30T11:02:46.257Z,12.74
2018-03-30T11:03:46.691Z,13.91
2018-03-30T11:04:51.399Z,14.35
2018-03-30T11:05:46.833Z,13.40
2018-03-30T11:06:46.311Z,13.77
2018-03-30T11:07:46.306Z,13.36
2018-03-30T11:08:46.333Z,13.92
2018-03-30T11:09:49.463Z,13.84
2018-03-30T11:10:46.414Z,13.69
2018-03-30T11:11:46.374Z,13.54
2018-03-30T11:12:46.408Z,14.20
2018-03-30T11:13:46.379Z,14.61
2018-03-30T11:15:07.440Z,14.25
2018-03-30T11:15:46.408Z,14.19
2018-03-30T11:16:46.436Z,14.25
2018-03-30T11:17:46.436Z,14.61
2018-03-30T11:18:46.567Z,15.43
2018-03-30T11:19:51.942Z,14.81
2018-03-30T11:20:46.449Z,13.96
2018-03-30T11:21:46.480Z,13.04
2018-03-30T11:22:46.854Z,12.81
2018-03-30T11:23:46.508Z,12.96
2018-03-30T11:26:48.239Z,12.48
2018-03-30T11:27:46.392Z,12.48
2018-03-30T11:28:46.388Z,12.74
2018-03-30T11:29:48.316Z,12.93
2018-03-30T11:30:46.421Z,12.60
2018-03-30T11:31:46.439Z,12.78
2018-03-30T11:32:46.416Z,13.03
2018-03-30T11:33:46.467Z,13.22
2018-03-30T11:34:47.718Z,13.52
2018-03-30T11:35:46.473Z,13.88
2018-03-30T11:36:46.470Z,13.87
2018-03-30T11:37:46.455Z,14.12
2018-03-30T11:38:47.262Z,14.65
2018-03-30T11:39:47.241Z,14.74
2018-03-30T11:40:54.296Z,14.74
2018-03-30T11:41:46.515Z,14.16
2018-03-30T11:42:46.508Z,13.27
2018-03-30T11:43:46.535Z,13.65
2018-03-30T11:44:46.546Z,13.36
2018-03-30T11:45:47.313Z,13.49
2018-03-30T11:46:46.559Z,13.67
2018-03-30T11:47:46.613Z,13.55
2018-03-30T11:48:46.584Z,13.36
2018-03-30T11:49:46.591Z,13.32
2018-03-30T11:51:07.645Z,13.56
2018-03-30T11:51:46.628Z,14.06
2018-03-30T11:52:46.606Z,14.46
2018-03-30T11:53:46.615Z,14.02
2018-03-30T11:54:46.787Z,13.33
2018-03-30T11:55:46.644Z,12.93
2018-03-30T11:56:46.642Z,12.51
2018-03-30T11:57:46.682Z,13.24
2018-03-30T11:58:49.336Z,13.94
2018-03-30T12:01:18.750Z,14.20
2018-03-30T12:02:18.766Z,14.10
2018-03-30T12:03:18.774Z,14.02
2018-03-30T12:04:18.782Z,14.06
2018-03-30T12:05:19.621Z,14.47
2018-03-30T12:06:18.802Z,15.23
2018-03-30T12:07:18.817Z,15.70
2018-03-30T12:08:18.814Z,15.68
2018-03-30T12:09:18.858Z,15.30
2018-03-30T12:10:43.877Z,14.49
2018-03-30T12:11:18.872Z,14.42
2018-03-30T12:12:18.869Z,14.38
2018-03-30T12:13:18.909Z,13.87
2018-03-30T12:14:18.918Z,14.16
2018-03-30T12:15:18.926Z,13.96
2018-03-30T12:16:38.002Z,13.91
2018-03-30T12:17:18.935Z,14.32
2018-03-30T12:18:18.966Z,14.74
2018-03-30T12:19:19.237Z,15.19
2018-03-30T12:20:19.001Z,15.20
2018-03-30T12:21:19.650Z,15.64
2018-03-30T12:22:19.074Z,15.30
2018-03-30T12:23:19.043Z,15.27
2018-03-30T12:24:19.059Z,15.03
2018-03-30T12:25:19.058Z,14.52
2018-03-30T12:26:37.506Z,14.84
2018-03-30T12:27:19.115Z,14.57
2018-03-30T12:28:19.119Z,14.68
2018-03-30T12:29:19.586Z,13.59
2018-03-30T12:30:19.396Z,13.22
2018-03-30T12:31:33.454Z,13.40
2018-03-30T12:32:19.172Z,13.58
2018-03-30T12:33:19.176Z,13.56
2018-03-30T12:34:30.354Z,13.91
2018-03-30T12:35:19.192Z,14.34
2018-03-30T12:36:40.534Z,14.64
2018-03-30T12:37:19.236Z,14.75
2018-03-30T12:38:19.236Z,15.13
2018-03-30T12:39:19.259Z,15.57
2018-03-30T12:40:19.267Z,15.93
2018-03-30T12:41:19.318Z,15.35
2018-03-30T12:42:19.285Z,14.95
2018-03-30T12:43:19.311Z,14.62
2018-03-30T12:44:19.307Z,14.62
2018-03-30T12:45:19.318Z,14.13
2018-03-30T12:46:19.731Z,14.37
2018-03-30T12:47:19.349Z,14.75
2018-03-30T12:48:19.357Z,14.99
2018-03-30T12:49:19.362Z,14.91
2018-03-30T12:50:20.313Z,14.84
2018-03-30T12:51:19.463Z,15.03
2018-03-30T12:52:19.418Z,14.32
2018-03-30T12:53:19.432Z,14.34
2018-03-30T12:54:19.429Z,14.80
2018-03-30T12:55:20.584Z,15.26
2018-03-30T12:56:25.037Z,14.68
2018-03-30T12:57:19.977Z,14.34
2018-03-30T12:58:19.490Z,14.31
2018-03-30T12:59:19.503Z,14.32
2018-03-30T13:00:19.522Z,14.46
2018-03-30T13:01:19.523Z,14.71
2018-03-30T13:02:38.026Z,14.61
2018-03-30T13:03:19.781Z,14.38
2018-03-30T13:04:19.588Z,14.67
2018-03-30T13:05:20.458Z,14.81
2018-03-30T13:06:19.607Z,14.98
2018-03-30T13:07:30.510Z,15.45
2018-03-30T13:08:19.647Z,15.21
2018-03-30T13:09:19.676Z,14.65
2018-03-30T13:10:19.652Z,14.61
2018-03-30T13:11:19.656Z,14.28
2018-03-30T13:12:25.031Z,14.61
2018-03-30T13:13:19.680Z,14.60
2018-03-30T13:14:19.738Z,14.34
2018-03-30T13:15:19.719Z,14.47
2018-03-30T13:16:19.731Z,14.21
2018-03-30T13:17:48.597Z,14.34
2018-03-30T13:18:19.745Z,14.65
2018-03-30T13:19:19.779Z,14.67
2018-03-30T13:20:19.783Z,15.21
2018-03-30T13:21:19.781Z,15.12
2018-03-30T13:22:21.505Z,14.98
2018-03-30T13:23:19.842Z,14.75
2018-03-30T13:24:19.808Z,14.60
2018-03-30T13:25:19.923Z,14.91
2018-03-30T13:26:20.424Z,15.08
2018-03-30T13:29:15.656Z,14.80
2018-03-30T13:29:53.043Z,14.20
2018-03-30T13:30:53.055Z,14.46
2018-03-30T13:31:53.068Z,15.28
2018-03-30T13:34:24.749Z,14.81
2018-03-30T13:35:24.706Z,15.30
2018-03-30T13:36:24.744Z,14.81
2018-03-30T13:37:24.766Z,14.62
2018-03-30T13:38:48.255Z,13.94
2018-03-30T13:39:24.769Z,13.84
2018-03-30T13:40:24.775Z,13.88
2018-03-30T13:41:24.799Z,14.21
2018-03-30T13:42:27.874Z,14.47
2018-03-30T13:43:24.799Z,14.47
2018-03-30T13:44:24.840Z,14.53
2018-03-30T13:45:24.833Z,14.72
2018-03-30T13:46:25.215Z,14.20
2018-03-30T13:47:24.859Z,14.43
2018-03-30T13:48:24.917Z,14.14
2018-03-30T13:49:24.865Z,13.84
2018-03-30T13:50:24.876Z,13.65
2018-03-30T13:51:24.902Z,13.89
2018-03-30T13:54:21.192Z,14.07
2018-03-30T13:55:20.162Z,14.61
2018-03-30T13:56:20.185Z,14.80
2018-03-30T13:57:20.191Z,14.64
2018-03-30T13:58:20.245Z,14.49
2018-03-30T13:59:20.198Z,14.24
2018-03-30T14:00:20.194Z,14.25
2018-03-30T14:01:20.218Z,14.20
2018-03-30T14:02:20.236Z,14.07
2018-03-30T14:03:42.184Z,13.84
2018-03-30T14:04:20.249Z,13.62
2018-03-30T14:05:20.249Z,13.36
2018-03-30T14:06:20.261Z,13.33
2018-03-30T14:07:20.266Z,13.47
2018-03-30T14:08:20.691Z,13.77
2018-03-30T14:09:20.281Z,13.92
2018-03-30T14:10:20.313Z,14.20
2018-03-30T14:11:20.431Z,14.68
2018-03-30T14:12:20.283Z,14.81
2018-03-30T14:13:21.163Z,14.90
2018-03-30T14:14:42.199Z,14.49
2018-03-30T14:15:20.323Z,14.43
2018-03-30T14:16:20.318Z,14.09
2018-03-30T14:17:20.337Z,14.13
2018-03-30T14:18:20.335Z,13.95
2018-03-30T14:19:22.205Z,13.94
2018-03-30T14:20:20.350Z,13.88
2018-03-30T14:21:20.373Z,13.87
2018-03-30T14:22:20.350Z,13.84
2018-03-30T14:23:49.187Z,14.13
2018-03-30T14:24:20.379Z,14.25
2018-03-30T14:25:20.384Z,14.20
2018-03-30T14:26:20.381Z,14.16
2018-03-30T14:27:20.377Z,13.98
2018-03-30T14:28:34.678Z,14.21
2018-03-30T14:29:20.458Z,13.98
2018-03-30T14:30:20.413Z,13.79
2018-03-30T14:31:20.402Z,13.88
2018-03-30T14:32:27.583Z,13.81
2018-03-30T14:33:31.185Z,13.65
2018-03-30T14:34:21.884Z,13.74
2018-03-30T14:35:42.135Z,13.92
2018-03-30T14:36:20.850Z,13.95
2018-03-30T14:37:20.444Z,14.10
2018-03-30T14:38:55.684Z,14.09
2018-03-30T14:39:20.454Z,14.04
2018-03-30T14:40:20.451Z,13.99
2018-03-30T14:41:20.459Z,14.24
2018-03-30T14:42:20.944Z,14.50
2018-03-30T14:43:20.459Z,14.62
2018-03-30T14:44:20.528Z,14.71
2018-03-30T14:45:20.473Z,14.62
2018-03-30T14:46:20.472Z,14.64
2018-03-30T14:47:20.513Z,14.46
2018-03-30T14:48:20.504Z,14.35
2018-03-30T14:49:21.418Z,14.07
2018-03-30T14:50:20.524Z,14.13
2018-03-30T14:51:20.514Z,14.29
2018-03-30T14:52:20.526Z,14.37
2018-03-30T14:53:21.179Z,14.34
2018-03-30T14:56:03.764Z,14.21
2018-03-30T14:57:02.815Z,14.13
2018-03-30T14:58:02.828Z,14.06
2018-03-30T14:59:05.000Z,14.10
2018-03-30T15:00:02.970Z,13.98
2018-03-30T15:01:02.822Z,14.01
2018-03-30T15:02:02.823Z,14.01
2018-03-30T15:03:02.838Z,14.07
2018-03-30T15:04:02.841Z,14.04
2018-03-30T15:05:42.287Z,13.89
2018-03-30T15:06:02.896Z,13.81
2018-03-30T15:07:03.372Z,13.95
2018-03-30T15:08:02.844Z,13.83
2018-03-30T15:09:02.873Z,13.99
2018-03-30T15:10:06.927Z,13.77
2018-03-30T15:11:02.868Z,13.84
2018-03-30T15:12:02.890Z,13.87
2018-03-30T15:13:03.337Z,13.92
2018-03-30T15:14:02.895Z,13.87
2018-03-30T15:15:08.316Z,13.74
2018-03-30T15:19:09.288Z,13.69
2018-03-30T15:20:03.442Z,13.65
2018-03-30T15:21:03.437Z,13.56
2018-03-30T15:22:03.453Z,13.61
2018-03-30T15:23:03.440Z,13.73
2018-03-30T15:24:03.454Z,13.74
2018-03-30T15:25:21.805Z,13.81
2018-03-30T15:26:03.459Z,13.96
2018-03-30T15:27:03.453Z,13.92
2018-03-30T15:28:03.460Z,13.88
2018-03-30T15:29:03.480Z,13.73
2018-03-30T15:30:24.805Z,13.79
2018-03-30T15:31:03.484Z,13.84
2018-03-30T15:32:03.484Z,13.96
2018-03-30T15:33:03.487Z,14.10
2018-03-30T15:34:03.505Z,14.21
2018-03-30T15:35:05.268Z,13.92
2018-03-30T15:36:03.486Z,13.87
2018-03-30T15:37:03.515Z,13.73
2018-03-30T15:38:03.509Z,13.56
2018-03-30T15:39:03.521Z,13.65
2018-03-30T15:40:25.280Z,13.56
2018-03-30T15:41:03.516Z,13.71
2018-03-30T15:42:03.529Z,13.69
2018-03-30T15:43:03.520Z,13.73
2018-03-30T15:44:03.525Z,13.69
2018-03-30T15:45:04.268Z,13.62
2018-03-30T15:46:03.522Z,13.51
2018-03-30T15:47:03.635Z,13.56
2018-03-30T15:48:03.560Z,13.58
2018-03-30T15:49:03.547Z,13.59
2018-03-30T15:50:03.801Z,13.47
2018-03-30T15:51:03.546Z,13.56
2018-03-30T15:52:03.547Z,13.59
2018-03-30T15:53:03.554Z,13.58
2018-03-30T15:54:03.551Z,13.62
2018-03-30T15:55:03.629Z,13.46
2018-03-30T15:56:03.575Z,13.51
2018-03-30T15:57:03.571Z,13.37
2018-03-30T15:58:03.561Z,13.30
2018-03-30T15:59:03.588Z,13.36
2018-03-30T16:00:03.641Z,13.41
2018-03-30T16:01:04.378Z,13.37
2018-03-30T16:02:03.595Z,13.33
2018-03-30T16:03:03.584Z,13.36
2018-03-30T16:04:03.589Z,13.20
2018-03-30T16:05:03.794Z,13.29
2018-03-30T16:06:03.596Z,13.27
2018-03-30T16:07:03.811Z,13.18
2018-03-30T16:08:03.596Z,13.17
2018-03-30T16:09:03.601Z,13.21
2018-03-30T16:10:11.286Z,13.17
2018-03-30T16:11:03.614Z,13.25
2018-03-30T16:12:04.546Z,13.11
2018-03-30T16:13:03.605Z,12.97
2018-03-30T16:14:03.612Z,13.11
2018-03-30T16:15:05.283Z,13.02
2018-03-30T16:16:03.627Z,13.02
2018-03-30T16:17:03.629Z,12.82
2018-03-30T16:18:03.612Z,12.92
2018-03-30T16:19:22.791Z,12.92
2018-03-30T16:20:21.815Z,12.92
2018-03-30T16:21:03.650Z,12.79
2018-03-30T16:22:03.659Z,12.81
2018-03-30T16:23:03.662Z,12.79
2018-03-30T16:24:03.701Z,12.71
2018-03-30T16:25:03.733Z,12.75
2018-03-30T16:26:03.668Z,12.78
2018-03-30T16:27:03.663Z,12.71
2018-03-30T16:28:03.657Z,12.69
2018-03-30T16:29:03.668Z,12.67
2018-03-30T16:30:03.662Z,12.71
2018-03-30T16:31:05.353Z,12.71
2018-03-30T16:32:03.666Z,12.60
2018-03-30T16:33:04.564Z,12.71
2018-03-30T16:34:03.670Z,12.64
2018-03-30T16:35:03.666Z,12.70
2018-03-30T16:36:21.796Z,12.56
2018-03-30T16:37:03.679Z,12.57
2018-03-30T16:38:03.693Z,12.49
2018-03-30T16:39:03.666Z,12.48
2018-03-30T16:40:03.789Z,12.46
2018-03-30T16:41:03.705Z,12.46
2018-03-30T16:42:08.832Z,12.59
2018-03-30T16:43:03.711Z,12.48
2018-03-30T16:44:03.707Z,12.51
2018-03-30T16:45:03.716Z,12.41
2018-03-30T16:46:03.705Z,12.46
2018-03-30T16:47:03.748Z,12.38
2018-03-30T16:48:03.694Z,12.49
2018-03-30T16:49:03.768Z,12.41
2018-03-30T16:50:03.706Z,12.26
2018-03-30T16:51:03.703Z,12.12
2018-03-30T16:52:11.336Z,12.01
2018-03-30T16:53:03.720Z,12.06
2018-03-30T16:54:03.700Z,11.90
2018-03-30T16:55:03.728Z,11.89
2018-03-30T16:56:03.723Z,11.82
2018-03-30T16:57:11.338Z,11.82
2018-03-30T16:58:03.733Z,11.78
2018-03-30T16:59:05.293Z,11.56
2018-03-30T17:00:03.749Z,11.64
2018-03-30T17:01:03.734Z,11.68
2018-03-30T17:02:04.318Z,11.52
2018-03-30T17:03:03.982Z,11.43
2018-03-30T17:04:03.750Z,11.31
2018-03-30T17:05:03.736Z,11.20
2018-03-30T17:06:03.750Z,11.29
2018-03-30T17:15:18.960Z,10.89
2018-03-30T17:16:18.876Z,10.74
2018-03-30T17:17:18.896Z,10.68
2018-03-30T17:18:24.427Z,10.71
2018-03-30T17:19:18.882Z,10.73
2018-03-30T17:20:18.884Z,10.76
2018-03-30T17:21:18.881Z,10.71
2018-03-30T17:22:40.487Z,10.71
2018-03-30T17:23:18.874Z,10.55
2018-03-30T17:24:18.873Z,10.62
2018-03-30T17:25:18.879Z,10.65
2018-03-30T17:26:18.910Z,10.60
2018-03-30T17:27:18.876Z,10.59
2018-03-30T17:29:53.655Z,10.59
2018-03-30T17:30:53.519Z,10.46
2018-03-30T17:31:53.530Z,10.52
2018-03-30T17:33:25.134Z,10.52
2018-03-30T17:33:53.495Z,10.55
2018-03-30T17:34:53.975Z,10.53
2018-03-30T17:35:53.496Z,10.51
2018-03-30T17:36:53.496Z,10.42
2018-03-30T17:38:04.816Z,10.47
2018-03-30T17:38:53.507Z,10.53
2018-03-30T17:39:53.506Z,10.39
2018-03-30T17:40:53.503Z,10.33
2018-03-30T17:45:09.864Z,10.17
2018-03-30T17:46:05.474Z,10.15
2018-03-30T17:47:04.850Z,9.99
2018-03-30T17:48:04.793Z,10.03
2018-03-30T17:49:04.783Z,10.18
2018-03-30T17:50:04.791Z,10.17
2018-03-30T17:51:04.791Z,10.04
2018-03-30T17:52:04.956Z,10.19
2018-03-30T17:53:04.790Z,10.19
2018-03-30T17:54:04.765Z,10.19
2018-03-30T17:55:04.771Z,10.19
2018-03-30T17:56:04.746Z,10.14
2018-03-30T17:57:04.758Z,10.22
2018-03-30T17:58:27.468Z,10.17
2018-03-30T17:59:04.748Z,10.14
2018-03-30T18:00:04.741Z,10.21
2018-03-30T18:01:04.751Z,10.19
2018-03-30T18:02:04.749Z,10.17
2018-03-30T18:03:04.916Z,10.00
2018-03-30T18:04:04.765Z,10.00
2018-03-30T18:05:04.803Z,9.78
2018-03-30T18:06:04.775Z,9.88
2018-03-30T18:07:04.821Z,9.75
2018-03-30T18:09:36.434Z,9.67
2018-03-30T18:10:36.974Z,9.58
2018-03-30T18:11:36.435Z,9.68
2018-03-30T18:12:36.833Z,9.52
2018-03-30T18:13:41.047Z,9.53
2018-03-30T18:14:37.024Z,9.56
2018-03-30T18:15:36.576Z,9.61
2018-03-30T18:16:36.413Z,9.60
2018-03-30T18:17:36.391Z,9.52
2018-03-30T18:18:36.458Z,9.61
2018-03-30T18:20:15.584Z,9.46
2018-03-30T18:20:36.369Z,9.31
2018-03-30T18:21:36.490Z,9.18
2018-03-30T18:22:36.376Z,9.13
2018-03-30T18:25:29.148Z,9.28
2018-03-30T18:26:08.041Z,9.18
2018-03-30T18:27:07.986Z,9.06
2018-03-30T18:28:07.993Z,9.04
2018-03-30T18:30:46.812Z,9.15
2018-03-30T18:31:41.121Z,9.15
2018-03-30T18:32:41.115Z,9.30
2018-03-30T18:34:03.049Z,9.27
2018-03-30T18:34:41.710Z,9.15
2018-03-30T18:35:41.115Z,8.94
2018-03-30T18:36:41.154Z,8.88
2018-03-30T18:37:41.134Z,8.66
2018-03-30T18:38:41.127Z,8.69
2018-03-30T18:46:38.870Z,9.06
2018-03-30T18:47:08.246Z,9.12
2018-03-30T18:48:08.251Z,9.10
2018-03-30T18:49:08.250Z,9.06
2018-03-30T18:50:08.278Z,9.05
2018-03-30T19:02:20.848Z,8.83
2018-03-30T19:02:59.203Z,8.72
2018-03-30T19:03:59.097Z,8.66
2018-03-30T19:04:59.104Z,8.65
2018-03-30T19:06:38.197Z,8.69
2018-03-30T19:06:59.120Z,8.66
2018-03-30T19:07:59.262Z,8.60
2018-03-30T19:08:59.061Z,8.55
2018-03-30T19:09:59.069Z,8.66
2018-03-30T19:12:59.677Z,8.58
2018-03-30T19:13:30.669Z,8.65
2018-03-30T19:14:30.669Z,8.50
2018-03-30T19:15:30.667Z,8.42
2018-03-30T19:16:49.386Z,8.36
2018-03-30T19:17:30.675Z,8.30
2018-03-30T19:18:30.662Z,8.30
2018-03-30T19:19:30.666Z,8.30
2018-03-30T19:20:30.650Z,8.28
2018-03-30T19:21:31.494Z,8.30
2018-03-30T19:22:31.315Z,8.32
2018-03-30T19:23:30.648Z,8.37
2018-03-30T19:24:30.647Z,8.26
2018-03-30T19:25:30.693Z,8.35
2018-03-30T19:26:30.680Z,8.36
2018-03-30T19:27:56.834Z,8.33
2018-03-30T19:28:30.704Z,8.21
2018-03-30T19:29:30.654Z,8.21
2018-03-30T19:30:30.647Z,8.28
2018-03-30T19:31:30.795Z,8.26
2018-03-30T19:32:30.718Z,8.21
2018-03-30T19:33:30.698Z,8.29
2018-03-30T19:34:30.695Z,8.36
2018-03-30T19:35:30.651Z,8.30
2018-03-30T19:36:30.676Z,8.32
2018-03-30T19:37:31.326Z,8.28
2018-03-30T19:38:31.498Z,8.30
2018-03-30T19:39:30.655Z,8.21
2018-03-30T19:40:30.649Z,8.20
2018-03-30T19:41:56.883Z,8.20
2018-03-30T19:42:30.649Z,8.12
2018-03-30T19:43:30.635Z,8.12
2018-03-30T19:44:30.632Z,8.21
2018-03-30T19:45:30.642Z,8.10
2018-03-30T19:46:30.664Z,8.08
2018-03-30T20:04:38.960Z,7.47
2018-03-30T20:05:20.356Z,7.37
2018-03-30T20:06:21.114Z,7.19
2018-03-30T20:07:20.389Z,7.12
2018-03-30T20:10:15.099Z,6.86
2018-03-30T20:10:52.045Z,6.77
2018-03-30T20:11:51.991Z,6.62
2018-03-30T20:12:52.049Z,6.54
2018-03-30T20:15:57.842Z,6.26
2018-03-30T20:16:23.551Z,6.33
2018-03-30T20:17:23.596Z,6.50
2018-03-30T20:20:36.561Z,6.81
2018-03-30T20:20:56.605Z,6.77
2018-03-30T20:21:56.355Z,6.86
2018-03-30T20:22:55.646Z,6.81
2018-03-30T20:23:55.707Z,6.94
2018-03-30T20:24:55.638Z,6.90
2018-03-30T20:25:55.827Z,6.84
2018-03-30T20:26:56.219Z,6.86
2018-03-30T20:27:55.641Z,6.77
2018-03-30T22:25:34.983Z,6.71
2018-03-30T22:26:16.860Z,6.62
2018-03-30T22:27:16.833Z,6.63
2018-03-30T22:28:16.837Z,6.63
2018-03-30T22:29:16.845Z,6.59
2018-03-30T22:43:49.567Z,6.68
2018-03-30T23:10:55.564Z,6.43
2018-03-30T23:11:31.456Z,6.30
2018-03-30T23:12:31.450Z,6.33
2018-03-30T23:13:31.456Z,6.11
